FFT777 KDEN-KLAS
Flight info
| Callsign | FFT777 |
|---|---|
| Flight time | 1h 34m |
| Altitude | 38000 |
| Route | CONNR8 WERNR ZAKRY CHESZ GGAPP CHOWW4 |
| Aircraft | A20N/M-SDE2E3FGHIRWXY/LB1 |
Departure
| Time | 2026-05-07 00:20 |
|---|---|
| Airport | Denver International Airport (KDEN) |
Arrival
| Time | 2026-05-07 01:54 |
|---|---|
| Airport | Harry Reid International Airport (KLAS) |
| Time | Latitude | Longitude | Altitude | Speed | Heading |
|---|---|---|---|---|---|
| 2026-05-06 23:42 | 39.85437 | -104.67320 | 5383 ft | 0 kts | 144° |
| 2026-05-07 00:05 | 39.85447 | -104.67329 | 5381 ft | 3 kts | 155° |
| 2026-05-07 00:05 | 39.85466 | -104.67336 | 5381 ft | 3 kts | 180° |
| 2026-05-07 00:06 | 39.85486 | -104.67334 | 5379 ft | 3 kts | 186° |
| 2026-05-07 00:06 | 39.85497 | -104.67333 | 5380 ft | 0 kts | 180° |
| 2026-05-07 00:12 | 39.85491 | -104.67333 | 5382 ft | 1 kts | 185° |
| 2026-05-07 00:12 | 39.85489 | -104.67334 | 5382 ft | 0 kts | 192° |
| 2026-05-07 00:12 | 39.85487 | -104.67337 | 5383 ft | 1 kts | 203° |
| 2026-05-07 00:12 | 39.85486 | -104.67338 | 5383 ft | 1 kts | 208° |
| 2026-05-07 00:13 | 39.85481 | -104.67348 | 5383 ft | 2 kts | 243° |
| 2026-05-07 00:13 | 39.85482 | -104.67375 | 5383 ft | 4 kts | 289° |
| 2026-05-07 00:13 | 39.85502 | -104.67445 | 5383 ft | 12 kts | 290° |
| 2026-05-07 00:13 | 39.85522 | -104.67565 | 5383 ft | 15 kts | 265° |
| 2026-05-07 00:14 | 39.85527 | -104.67682 | 5383 ft | 13 kts | 270° |
| 2026-05-07 00:14 | 39.85528 | -104.67810 | 5383 ft | 15 kts | 270° |
| 2026-05-07 00:14 | 39.85529 | -104.67957 | 5383 ft | 17 kts | 270° |
| 2026-05-07 00:14 | 39.85528 | -104.68122 | 5383 ft | 19 kts | 269° |
| 2026-05-07 00:15 | 39.85531 | -104.68296 | 5381 ft | 14 kts | 268° |
| 2026-05-07 00:15 | 39.85534 | -104.68328 | 5376 ft | 0 kts | 290° |
| 2026-05-07 00:15 | 39.85565 | -104.68397 | 5374 ft | 17 kts | 306° |
| 2026-05-07 00:15 | 39.85529 | -104.68515 | 5372 ft | 16 kts | 179° |
| 2026-05-07 00:16 | 39.85413 | -104.68509 | 5376 ft | 22 kts | 184° |
| 2026-05-07 00:16 | 39.85244 | -104.68518 | 5374 ft | 25 kts | 184° |
| 2026-05-07 00:16 | 39.85190 | -104.68640 | 5370 ft | 15 kts | 277° |
| 2026-05-07 00:16 | 39.85198 | -104.68810 | 5363 ft | 22 kts | 272° |
| 2026-05-07 00:17 | 39.85220 | -104.69002 | 5355 ft | 21 kts | 309° |
| 2026-05-07 00:17 | 39.85209 | -104.69110 | 5350 ft | 13 kts | 266° |
| 2026-05-07 00:17 | 39.85201 | -104.69261 | 5346 ft | 20 kts | 267° |
| 2026-05-07 00:17 | 39.85200 | -104.69355 | 5342 ft | 0 kts | 270° |
| 2026-05-07 00:18 | 39.85200 | -104.69411 | 5339 ft | 10 kts | 270° |
| 2026-05-07 00:18 | 39.85200 | -104.69511 | 5338 ft | 12 kts | 270° |
| 2026-05-07 00:18 | 39.85204 | -104.69611 | 5338 ft | 6 kts | 275° |
| 2026-05-07 00:18 | 39.85206 | -104.69623 | 5337 ft | 2 kts | 281° |
| 2026-05-07 00:19 | 39.85219 | -104.69647 | 5340 ft | 5 kts | 321° |
| 2026-05-07 00:19 | 39.85259 | -104.69655 | 5338 ft | 9 kts | 360° |
| 2026-05-07 00:19 | 39.85531 | -104.69658 | 5337 ft | 72 kts | 359° |
| 2026-05-07 00:19 | 39.86226 | -104.69641 | 5333 ft | 128 kts | 359° |
| 2026-05-07 00:20 | 39.87266 | -104.69632 | 5337 ft | 170 kts | 0° |
| 2026-05-07 00:20 | 39.88547 | -104.69603 | 5498 ft | 188 kts | 2° |
| 2026-05-07 00:20 | 39.89864 | -104.69547 | 6095 ft | 191 kts | 2° |
| 2026-05-07 00:20 | 39.91242 | -104.69495 | 6617 ft | 202 kts | 0° |
| 2026-05-07 00:21 | 39.92645 | -104.69479 | 7237 ft | 196 kts | 358° |
| 2026-05-07 00:21 | 39.94016 | -104.69504 | 7682 ft | 205 kts | 356° |
| 2026-05-07 00:21 | 39.95507 | -104.69529 | 7903 ft | 226 kts | 357° |
| 2026-05-07 00:21 | 39.97187 | -104.69550 | 8159 ft | 252 kts | 358° |
| 2026-05-07 00:22 | 39.99026 | -104.69522 | 8614 ft | 273 kts | 358° |
| 2026-05-07 00:22 | 40.00939 | -104.69572 | 9594 ft | 274 kts | 347° |
| 2026-05-07 00:22 | 40.02683 | -104.70482 | 10674 ft | 274 kts | 325° |
| 2026-05-07 00:22 | 40.04044 | -104.72309 | 11157 ft | 295 kts | 301° |
| 2026-05-07 00:23 | 40.04750 | -104.74936 | 11614 ft | 319 kts | 278° |
| 2026-05-07 00:23 | 40.04541 | -104.77853 | 12482 ft | 330 kts | 256° |
| 2026-05-07 00:23 | 40.03444 | -104.80525 | 13424 ft | 342 kts | 234° |
| 2026-05-07 00:23 | 40.01641 | -104.82530 | 14278 ft | 357 kts | 214° |
| 2026-05-07 00:24 | 39.99269 | -104.83698 | 14948 ft | 373 kts | 196° |
| 2026-05-07 00:24 | 39.96696 | -104.84374 | 15657 ft | 381 kts | 195° |
| 2026-05-07 00:24 | 39.94099 | -104.85225 | 16394 ft | 386 kts | 200° |
| 2026-05-07 00:24 | 39.91551 | -104.86362 | 17101 ft | 392 kts | 204° |
| 2026-05-07 00:25 | 39.89000 | -104.87727 | 17796 ft | 398 kts | 207° |
| 2026-05-07 00:25 | 39.86528 | -104.89363 | 18470 ft | 401 kts | 218° |
| 2026-05-07 00:25 | 39.84491 | -104.91800 | 19065 ft | 397 kts | 236° |
| 2026-05-07 00:25 | 39.83105 | -104.94887 | 19666 ft | 393 kts | 254° |
| 2026-05-07 00:26 | 39.82345 | -104.98279 | 20247 ft | 393 kts | 263° |
| 2026-05-07 00:26 | 39.81779 | -105.01768 | 20858 ft | 398 kts | 264° |
| 2026-05-07 00:26 | 39.81203 | -105.05321 | 21454 ft | 404 kts | 263° |
| 2026-05-07 00:26 | 39.80565 | -105.08918 | 22065 ft | 410 kts | 263° |
| 2026-05-07 00:27 | 39.79872 | -105.12553 | 22679 ft | 416 kts | 262° |
| 2026-05-07 00:27 | 39.79151 | -105.16190 | 23260 ft | 422 kts | 262° |
| 2026-05-07 00:27 | 39.78400 | -105.19912 | 23843 ft | 427 kts | 262° |
| 2026-05-07 00:27 | 39.77659 | -105.23550 | 24373 ft | 429 kts | 262° |
| 2026-05-07 00:28 | 39.76889 | -105.27331 | 24909 ft | 432 kts | 262° |
| 2026-05-07 00:28 | 39.76114 | -105.31131 | 25426 ft | 436 kts | 262° |
| 2026-05-07 00:28 | 39.75342 | -105.34904 | 25916 ft | 439 kts | 262° |
| 2026-05-07 00:28 | 39.74544 | -105.38800 | 26430 ft | 442 kts | 262° |
| 2026-05-07 00:29 | 39.73762 | -105.42625 | 26895 ft | 446 kts | 262° |
| 2026-05-07 00:29 | 39.72961 | -105.46535 | 27393 ft | 449 kts | 262° |
| 2026-05-07 00:30 | 39.70514 | -105.58429 | 28771 ft | 458 kts | 262° |
| 2026-05-07 00:30 | 39.69698 | -105.62418 | 29227 ft | 461 kts | 262° |
| 2026-05-07 00:30 | 39.68892 | -105.66459 | 29582 ft | 462 kts | 265° |
| 2026-05-07 00:30 | 39.68311 | -105.70562 | 29992 ft | 462 kts | 268° |
| 2026-05-07 00:31 | 39.67763 | -105.74667 | 30356 ft | 464 kts | 267° |
| 2026-05-07 00:31 | 39.67208 | -105.78754 | 30717 ft | 466 kts | 267° |
| 2026-05-07 00:31 | 39.66648 | -105.82867 | 31057 ft | 469 kts | 267° |
| 2026-05-07 00:31 | 39.66069 | -105.87087 | 31515 ft | 469 kts | 267° |
| 2026-05-07 00:32 | 39.65503 | -105.91186 | 31970 ft | 468 kts | 267° |
| 2026-05-07 00:32 | 39.64926 | -105.95351 | 32451 ft | 467 kts | 267° |
| 2026-05-07 00:32 | 39.64353 | -105.99492 | 32906 ft | 467 kts | 267° |
| 2026-05-07 00:32 | 39.63780 | -106.03636 | 33404 ft | 466 kts | 267° |
| 2026-05-07 00:33 | 39.63208 | -106.07753 | 33886 ft | 464 kts | 267° |
| 2026-05-07 00:33 | 39.62635 | -106.11871 | 34279 ft | 463 kts | 266° |
| 2026-05-07 00:33 | 39.62059 | -106.15994 | 34748 ft | 461 kts | 266° |
| 2026-05-07 00:33 | 39.61486 | -106.20071 | 35195 ft | 458 kts | 266° |
| 2026-05-07 00:34 | 39.60917 | -106.24130 | 35606 ft | 456 kts | 266° |
| 2026-05-07 00:34 | 39.60356 | -106.28129 | 35974 ft | 454 kts | 266° |
| 2026-05-07 00:34 | 39.59785 | -106.32186 | 36345 ft | 452 kts | 266° |
| 2026-05-07 00:34 | 39.59228 | -106.36148 | 36636 ft | 450 kts | 265° |
| 2026-05-07 00:35 | 39.58664 | -106.40136 | 36935 ft | 448 kts | 265° |
| 2026-05-07 00:35 | 39.58104 | -106.44078 | 37293 ft | 444 kts | 265° |
| 2026-05-07 00:35 | 39.57541 | -106.48037 | 37465 ft | 447 kts | 265° |
| 2026-05-07 00:35 | 39.56977 | -106.51991 | 37777 ft | 446 kts | 265° |
| 2026-05-07 00:36 | 39.56412 | -106.55928 | 38080 ft | 445 kts | 265° |
| 2026-05-07 00:36 | 39.55844 | -106.59886 | 38099 ft | 444 kts | 265° |
| 2026-05-07 00:36 | 39.54481 | -106.67693 | 38111 ft | 448 kts | 258° |
| 2026-05-07 00:37 | 39.52252 | -106.75267 | 38132 ft | 452 kts | 253° |
| 2026-05-07 00:37 | 39.50272 | -106.81558 | 38136 ft | 453 kts | 253° |
| 2026-05-07 00:38 | 39.47902 | -106.89112 | 38136 ft | 452 kts | 253° |
| 2026-05-07 00:38 | 39.45521 | -106.96668 | 38114 ft | 453 kts | 253° |
| 2026-05-07 00:39 | 39.43141 | -107.04188 | 38094 ft | 453 kts | 253° |
| 2026-05-07 00:39 | 39.40750 | -107.11727 | 38076 ft | 453 kts | 253° |
| 2026-05-07 00:40 | 39.38344 | -107.19289 | 38061 ft | 454 kts | 253° |
| 2026-05-07 00:40 | 39.35651 | -107.26716 | 38041 ft | 457 kts | 250° |
| 2026-05-07 00:41 | 39.32922 | -107.34070 | 38036 ft | 457 kts | 250° |
| 2026-05-07 00:41 | 39.30169 | -107.41494 | 38056 ft | 458 kts | 250° |
| 2026-05-07 00:42 | 39.27415 | -107.48897 | 38069 ft | 458 kts | 250° |
| 2026-05-07 00:42 | 39.24644 | -107.56320 | 38081 ft | 459 kts | 250° |
| 2026-05-07 00:43 | 39.21890 | -107.63677 | 38086 ft | 459 kts | 250° |
| 2026-05-07 00:43 | 39.19087 | -107.71146 | 38091 ft | 460 kts | 250° |
| 2026-05-07 00:44 | 39.16314 | -107.78519 | 38082 ft | 461 kts | 249° |
| 2026-05-07 00:44 | 39.13509 | -107.85958 | 38088 ft | 461 kts | 249° |
| 2026-05-07 00:45 | 39.10697 | -107.93398 | 38085 ft | 462 kts | 249° |
| 2026-05-07 00:45 | 39.07876 | -108.00842 | 38097 ft | 462 kts | 249° |
| 2026-05-07 00:46 | 39.05049 | -108.08281 | 38107 ft | 463 kts | 249° |
| 2026-05-07 00:46 | 39.02215 | -108.15723 | 38104 ft | 463 kts | 249° |
| 2026-05-07 00:47 | 38.99384 | -108.23136 | 38095 ft | 463 kts | 249° |
| 2026-05-07 00:47 | 38.96561 | -108.30510 | 38100 ft | 462 kts | 249° |
| 2026-05-07 00:48 | 38.93717 | -108.37923 | 38095 ft | 462 kts | 249° |
| 2026-05-07 00:48 | 38.90867 | -108.45335 | 38103 ft | 463 kts | 249° |
| 2026-05-07 00:49 | 38.87997 | -108.52782 | 38094 ft | 463 kts | 249° |
| 2026-05-07 00:49 | 38.85158 | -108.60123 | 38084 ft | 462 kts | 249° |
| 2026-05-07 00:50 | 38.82299 | -108.67504 | 38071 ft | 462 kts | 249° |
| 2026-05-07 00:50 | 38.79430 | -108.74893 | 38055 ft | 462 kts | 249° |
| 2026-05-07 00:51 | 38.76561 | -108.82263 | 38073 ft | 462 kts | 249° |
| 2026-05-07 00:51 | 38.73682 | -108.89643 | 38083 ft | 463 kts | 249° |
| 2026-05-07 00:52 | 38.70789 | -108.97040 | 38093 ft | 464 kts | 249° |
| 2026-05-07 00:52 | 38.67901 | -109.04408 | 38086 ft | 466 kts | 248° |
| 2026-05-07 00:53 | 38.64987 | -109.11819 | 38108 ft | 467 kts | 248° |
| 2026-05-07 00:53 | 38.62061 | -109.19241 | 38100 ft | 467 kts | 248° |
| 2026-05-07 00:54 | 38.59129 | -109.26664 | 38096 ft | 468 kts | 248° |
| 2026-05-07 00:54 | 38.56190 | -109.34088 | 38097 ft | 468 kts | 248° |
| 2026-05-07 00:55 | 38.53243 | -109.41513 | 38106 ft | 467 kts | 248° |
| 2026-05-07 00:55 | 38.50306 | -109.48895 | 38085 ft | 467 kts | 248° |
| 2026-05-07 00:56 | 38.47359 | -109.56287 | 38074 ft | 467 kts | 248° |
| 2026-05-07 00:56 | 38.44423 | -109.63630 | 38066 ft | 467 kts | 248° |
| 2026-05-07 00:57 | 38.41459 | -109.71027 | 38070 ft | 467 kts | 248° |
| 2026-05-07 00:57 | 38.38510 | -109.78370 | 38057 ft | 467 kts | 248° |
| 2026-05-07 00:58 | 38.35550 | -109.85722 | 38057 ft | 466 kts | 248° |
| 2026-05-07 00:58 | 38.32586 | -109.93066 | 38051 ft | 466 kts | 248° |
| 2026-05-07 00:59 | 38.28135 | -110.04078 | 38043 ft | 466 kts | 248° |
| 2026-05-07 01:00 | 38.25470 | -110.11526 | 38032 ft | 462 kts | 252° |
| 2026-05-07 01:00 | 38.22948 | -110.19056 | 38027 ft | 462 kts | 251° |
| 2026-05-07 01:01 | 38.20394 | -110.26488 | 38021 ft | 462 kts | 251° |
| 2026-05-07 01:01 | 38.17803 | -110.33939 | 38005 ft | 462 kts | 251° |
| 2026-05-07 01:02 | 38.15199 | -110.41398 | 38003 ft | 462 kts | 251° |
| 2026-05-07 01:02 | 38.12589 | -110.48859 | 38008 ft | 463 kts | 251° |
| 2026-05-07 01:03 | 38.09960 | -110.56362 | 38004 ft | 464 kts | 251° |
| 2026-05-07 01:03 | 38.07331 | -110.63840 | 38000 ft | 465 kts | 251° |
| 2026-05-07 01:04 | 38.04684 | -110.71348 | 37996 ft | 466 kts | 251° |
| 2026-05-07 01:04 | 38.02052 | -110.78797 | 38001 ft | 467 kts | 250° |
| 2026-05-07 01:05 | 37.99375 | -110.86355 | 37999 ft | 467 kts | 250° |
| 2026-05-07 01:05 | 37.96718 | -110.93836 | 37998 ft | 468 kts | 250° |
| 2026-05-07 01:06 | 37.94037 | -111.01366 | 37992 ft | 469 kts | 250° |
| 2026-05-07 01:06 | 37.91351 | -111.08881 | 37990 ft | 469 kts | 250° |
| 2026-05-07 01:07 | 37.88647 | -111.16421 | 37986 ft | 469 kts | 250° |
| 2026-05-07 01:07 | 37.85951 | -111.23930 | 37991 ft | 469 kts | 250° |
| 2026-05-07 01:08 | 37.83262 | -111.31410 | 37805 ft | 464 kts | 250° |
| 2026-05-07 01:08 | 37.81917 | -111.35143 | 37251 ft | 464 kts | 250° |
| 2026-05-07 01:08 | 37.80577 | -111.38862 | 36543 ft | 464 kts | 250° |
| 2026-05-07 01:08 | 37.79236 | -111.42583 | 35787 ft | 466 kts | 250° |
| 2026-05-07 01:09 | 37.77890 | -111.46311 | 35023 ft | 468 kts | 250° |
| 2026-05-07 01:09 | 37.76549 | -111.50018 | 34273 ft | 470 kts | 250° |
| 2026-05-07 01:09 | 37.75187 | -111.53774 | 33477 ft | 471 kts | 250° |
| 2026-05-07 01:09 | 37.73818 | -111.57546 | 32637 ft | 473 kts | 250° |
| 2026-05-07 01:10 | 37.72444 | -111.61322 | 32141 ft | 472 kts | 250° |
| 2026-05-07 01:10 | 37.71064 | -111.65115 | 31994 ft | 480 kts | 250° |
| 2026-05-07 01:10 | 37.69664 | -111.68961 | 31972 ft | 482 kts | 250° |
| 2026-05-07 01:11 | 37.66859 | -111.76637 | 32026 ft | 481 kts | 250° |
| 2026-05-07 01:11 | 37.64050 | -111.84309 | 32078 ft | 482 kts | 250° |
| 2026-05-07 01:12 | 37.61227 | -111.92004 | 32126 ft | 482 kts | 250° |
| 2026-05-07 01:12 | 37.58415 | -111.99651 | 32158 ft | 482 kts | 250° |
| 2026-05-07 01:13 | 37.55588 | -112.07322 | 32168 ft | 482 kts | 249° |
| 2026-05-07 01:13 | 37.52568 | -112.14880 | 32150 ft | 486 kts | 242° |
| 2026-05-07 01:14 | 37.48814 | -112.21990 | 32115 ft | 488 kts | 240° |
| 2026-05-07 01:14 | 37.45075 | -112.29075 | 32072 ft | 488 kts | 240° |
| 2026-05-07 01:15 | 37.41323 | -112.36173 | 32019 ft | 488 kts | 240° |
| 2026-05-07 01:15 | 37.37544 | -112.43299 | 31998 ft | 489 kts | 240° |
| 2026-05-07 01:16 | 37.33767 | -112.50404 | 31998 ft | 488 kts | 240° |
| 2026-05-07 01:16 | 37.29990 | -112.57494 | 31996 ft | 488 kts | 240° |
| 2026-05-07 01:17 | 37.26207 | -112.64582 | 31991 ft | 488 kts | 239° |
| 2026-05-07 01:17 | 37.22443 | -112.71621 | 31984 ft | 488 kts | 239° |
| 2026-05-07 01:18 | 37.18628 | -112.78739 | 32023 ft | 488 kts | 239° |
| 2026-05-07 01:18 | 37.14840 | -112.85787 | 32053 ft | 488 kts | 239° |
| 2026-05-07 01:19 | 37.11034 | -112.92855 | 32091 ft | 489 kts | 239° |
| 2026-05-07 01:19 | 37.07233 | -112.99898 | 32129 ft | 489 kts | 239° |
| 2026-05-07 01:20 | 37.03410 | -113.06970 | 32145 ft | 489 kts | 239° |
| 2026-05-07 01:20 | 36.99616 | -113.13971 | 32135 ft | 489 kts | 239° |
| 2026-05-07 01:21 | 36.95794 | -113.21015 | 32107 ft | 490 kts | 239° |
| 2026-05-07 01:21 | 36.91966 | -113.28054 | 32069 ft | 489 kts | 239° |
| 2026-05-07 01:21 | 36.90050 | -113.31561 | 31767 ft | 488 kts | 238° |
| 2026-05-07 01:22 | 36.88137 | -113.35055 | 31103 ft | 489 kts | 238° |
| 2026-05-07 01:22 | 36.86206 | -113.38595 | 30151 ft | 493 kts | 238° |
| 2026-05-07 01:22 | 36.84271 | -113.42146 | 28924 ft | 499 kts | 238° |
| 2026-05-07 01:22 | 36.82316 | -113.45724 | 28054 ft | 497 kts | 238° |
| 2026-05-07 01:23 | 36.80389 | -113.49241 | 27524 ft | 487 kts | 238° |
| 2026-05-07 01:23 | 36.78501 | -113.52679 | 27067 ft | 476 kts | 238° |
| 2026-05-07 01:23 | 36.76648 | -113.56054 | 26461 ft | 469 kts | 238° |
| 2026-05-07 01:23 | 36.74809 | -113.59399 | 25855 ft | 463 kts | 238° |
| 2026-05-07 01:24 | 36.73607 | -113.61585 | 25470 ft | 459 kts | 238° |
| 2026-05-07 01:24 | 36.71210 | -113.65940 | 24681 ft | 452 kts | 238° |
| 2026-05-07 01:24 | 36.69457 | -113.69122 | 24102 ft | 448 kts | 238° |
| 2026-05-07 01:24 | 36.67694 | -113.72317 | 23519 ft | 443 kts | 238° |
| 2026-05-07 01:25 | 36.66521 | -113.74441 | 23076 ft | 440 kts | 237° |
| 2026-05-07 01:25 | 36.64799 | -113.77556 | 22506 ft | 434 kts | 238° |
| 2026-05-07 01:25 | 36.63124 | -113.80585 | 21950 ft | 428 kts | 237° |
| 2026-05-07 01:25 | 36.61429 | -113.83644 | 21386 ft | 421 kts | 237° |
| 2026-05-07 01:26 | 36.59775 | -113.86629 | 20826 ft | 416 kts | 237° |
| 2026-05-07 01:26 | 36.58163 | -113.89537 | 20293 ft | 411 kts | 237° |
| 2026-05-07 01:26 | 36.56526 | -113.92488 | 19738 ft | 407 kts | 237° |
| 2026-05-07 01:26 | 36.54943 | -113.95336 | 19198 ft | 404 kts | 237° |
| 2026-05-07 01:27 | 36.53354 | -113.98194 | 18662 ft | 400 kts | 237° |
| 2026-05-07 01:27 | 36.51776 | -114.01031 | 18111 ft | 397 kts | 237° |
| 2026-05-07 01:27 | 36.50210 | -114.03844 | 17540 ft | 393 kts | 237° |
| 2026-05-07 01:27 | 36.48668 | -114.06609 | 17030 ft | 388 kts | 237° |
| 2026-05-07 01:28 | 36.47132 | -114.09361 | 16495 ft | 384 kts | 237° |
| 2026-05-07 01:28 | 36.45631 | -114.12050 | 15980 ft | 379 kts | 237° |
| 2026-05-07 01:28 | 36.44134 | -114.14729 | 15628 ft | 371 kts | 237° |
| 2026-05-07 01:28 | 36.42689 | -114.17311 | 15481 ft | 357 kts | 237° |
| 2026-05-07 01:29 | 36.41296 | -114.19800 | 15355 ft | 343 kts | 237° |
| 2026-05-07 01:29 | 36.39952 | -114.22201 | 15142 ft | 335 kts | 237° |
| 2026-05-07 01:29 | 36.38535 | -114.24500 | 14904 ft | 336 kts | 233° |
| 2026-05-07 01:29 | 36.37076 | -114.26768 | 14569 ft | 337 kts | 233° |
| 2026-05-07 01:30 | 36.35625 | -114.29055 | 14203 ft | 335 kts | 234° |
| 2026-05-07 01:30 | 36.34208 | -114.31291 | 13827 ft | 333 kts | 234° |
| 2026-05-07 01:30 | 36.32781 | -114.33539 | 13430 ft | 330 kts | 234° |
| 2026-05-07 01:30 | 36.31352 | -114.35783 | 13060 ft | 326 kts | 234° |
| 2026-05-07 01:31 | 36.29971 | -114.37947 | 12696 ft | 322 kts | 234° |
| 2026-05-07 01:31 | 36.28592 | -114.40103 | 12338 ft | 318 kts | 234° |
| 2026-05-07 01:31 | 36.27224 | -114.42241 | 11976 ft | 315 kts | 234° |
| 2026-05-07 01:31 | 36.25870 | -114.44358 | 11622 ft | 310 kts | 234° |
| 2026-05-07 01:32 | 36.24536 | -114.46431 | 11277 ft | 307 kts | 233° |
| 2026-05-07 01:32 | 36.23198 | -114.48487 | 10921 ft | 304 kts | 233° |
| 2026-05-07 01:32 | 36.21873 | -114.50510 | 10571 ft | 301 kts | 233° |
| 2026-05-07 01:32 | 36.20561 | -114.52515 | 10229 ft | 299 kts | 234° |
| 2026-05-07 01:33 | 36.19259 | -114.54506 | 9894 ft | 296 kts | 234° |
| 2026-05-07 01:33 | 36.17968 | -114.56479 | 9549 ft | 293 kts | 234° |
| 2026-05-07 01:33 | 36.16691 | -114.58437 | 9212 ft | 290 kts | 233° |
| 2026-05-07 01:33 | 36.15431 | -114.60366 | 8895 ft | 287 kts | 233° |
| 2026-05-07 01:34 | 36.14173 | -114.62293 | 8562 ft | 293 kts | 233° |
| 2026-05-07 01:34 | 36.12863 | -114.64302 | 8242 ft | 303 kts | 233° |
| 2026-05-07 01:34 | 36.11543 | -114.66318 | 7916 ft | 300 kts | 233° |
| 2026-05-07 01:34 | 36.10235 | -114.68311 | 7584 ft | 297 kts | 233° |
| 2026-05-07 01:35 | 36.08937 | -114.70285 | 7301 ft | 291 kts | 232° |
| 2026-05-07 01:35 | 36.07690 | -114.72181 | 7212 ft | 278 kts | 233° |
| 2026-05-07 01:35 | 36.06693 | -114.74124 | 7117 ft | 263 kts | 253° |
| 2026-05-07 01:35 | 36.06458 | -114.76215 | 7033 ft | 246 kts | 276° |
| 2026-05-07 01:36 | 36.06579 | -114.78290 | 6942 ft | 233 kts | 276° |
| 2026-05-07 01:36 | 36.06677 | -114.80247 | 6801 ft | 223 kts | 276° |
| 2026-05-07 01:36 | 36.06765 | -114.82123 | 6426 ft | 218 kts | 275° |
| 2026-05-07 01:36 | 36.06852 | -114.84013 | 5833 ft | 221 kts | 275° |
| 2026-05-07 01:37 | 36.06940 | -114.85882 | 5310 ft | 219 kts | 275° |
| 2026-05-07 01:37 | 36.07031 | -114.87755 | 4898 ft | 214 kts | 274° |
| 2026-05-07 01:37 | 36.07114 | -114.89520 | 4773 ft | 201 kts | 274° |
| 2026-05-07 01:37 | 36.07197 | -114.91268 | 4771 ft | 204 kts | 274° |
| 2026-05-07 01:38 | 36.07277 | -114.93016 | 4763 ft | 204 kts | 274° |
| 2026-05-07 01:38 | 36.07348 | -114.94735 | 4764 ft | 204 kts | 273° |
| 2026-05-07 01:38 | 36.07376 | -114.96502 | 4604 ft | 205 kts | 270° |
| 2026-05-07 01:38 | 36.07374 | -114.98239 | 4320 ft | 197 kts | 271° |
| 2026-05-07 01:39 | 36.07374 | -114.99886 | 4070 ft | 187 kts | 270° |
| 2026-05-07 01:39 | 36.07373 | -115.01477 | 3838 ft | 185 kts | 270° |
| 2026-05-07 01:39 | 36.07372 | -115.02988 | 3613 ft | 178 kts | 270° |
| 2026-05-07 01:39 | 36.07371 | -115.04488 | 3393 ft | 171 kts | 270° |
| 2026-05-07 01:40 | 36.07370 | -115.05930 | 3186 ft | 165 kts | 269° |
| 2026-05-07 01:40 | 36.07369 | -115.07316 | 2975 ft | 157 kts | 269° |
| 2026-05-07 01:40 | 36.07369 | -115.08626 | 2743 ft | 146 kts | 269° |
| 2026-05-07 01:40 | 36.07372 | -115.09926 | 2563 ft | 151 kts | 269° |
| 2026-05-07 01:41 | 36.07369 | -115.11200 | 2384 ft | 150 kts | 269° |
| 2026-05-07 01:41 | 36.07377 | -115.12575 | 2469 ft | 177 kts | 270° |
| 2026-05-07 01:41 | 36.07399 | -115.14183 | 3081 ft | 199 kts | 270° |
| 2026-05-07 01:41 | 36.07417 | -115.16002 | 3429 ft | 226 kts | 270° |
| 2026-05-07 01:42 | 36.07424 | -115.17999 | 3193 ft | 233 kts | 269° |
| 2026-05-07 01:42 | 36.07408 | -115.20058 | 3201 ft | 250 kts | 269° |
| 2026-05-07 01:42 | 36.07454 | -115.22273 | 3533 ft | 265 kts | 281° |
| 2026-05-07 01:42 | 36.08238 | -115.24322 | 4282 ft | 266 kts | 312° |
| 2026-05-07 01:43 | 36.09773 | -115.25532 | 4643 ft | 267 kts | 346° |
| 2026-05-07 01:43 | 36.11594 | -115.25493 | 4794 ft | 265 kts | 20° |
| 2026-05-07 01:43 | 36.13074 | -115.24188 | 4782 ft | 264 kts | 55° |
| 2026-05-07 01:43 | 36.13693 | -115.22121 | 4783 ft | 263 kts | 83° |
| 2026-05-07 01:44 | 36.13785 | -115.19870 | 4803 ft | 263 kts | 90° |
| 2026-05-07 01:44 | 36.13763 | -115.17607 | 4799 ft | 263 kts | 91° |
| 2026-05-07 01:44 | 36.13720 | -115.15343 | 4799 ft | 263 kts | 91° |
| 2026-05-07 01:44 | 36.13675 | -115.13055 | 4806 ft | 263 kts | 91° |
| 2026-05-07 01:45 | 36.13632 | -115.10821 | 4802 ft | 264 kts | 91° |
| 2026-05-07 01:45 | 36.13431 | -115.08586 | 4797 ft | 258 kts | 109° |
| 2026-05-07 01:45 | 36.12499 | -115.06793 | 4801 ft | 243 kts | 139° |
| 2026-05-07 01:45 | 36.11094 | -115.05777 | 4800 ft | 228 kts | 158° |
| 2026-05-07 01:46 | 36.09638 | -115.05127 | 4795 ft | 221 kts | 159° |
| 2026-05-07 01:46 | 36.08254 | -115.04269 | 4807 ft | 223 kts | 145° |
| 2026-05-07 01:46 | 36.07094 | -115.03010 | 4794 ft | 221 kts | 131° |
| 2026-05-07 01:46 | 36.06162 | -115.01500 | 4794 ft | 221 kts | 122° |
| 2026-05-07 01:47 | 36.05371 | -114.99876 | 4793 ft | 222 kts | 118° |
| 2026-05-07 01:47 | 36.04582 | -114.98064 | 4792 ft | 259 kts | 117° |
| 2026-05-07 01:47 | 36.03742 | -114.96080 | 4773 ft | 264 kts | 117° |
| 2026-05-07 01:47 | 36.02888 | -114.94068 | 4775 ft | 264 kts | 117° |
| 2026-05-07 01:48 | 36.02031 | -114.92057 | 4777 ft | 261 kts | 117° |
| 2026-05-07 01:48 | 36.01240 | -114.90100 | 4777 ft | 253 kts | 108° |
| 2026-05-07 01:48 | 36.01091 | -114.87984 | 4775 ft | 243 kts | 78° |
| 2026-05-07 01:48 | 36.01772 | -114.86196 | 4786 ft | 223 kts | 48° |
| 2026-05-07 01:49 | 36.02972 | -114.85110 | 4787 ft | 213 kts | 21° |
| 2026-05-07 01:49 | 36.04441 | -114.84917 | 4780 ft | 214 kts | 349° |
| 2026-05-07 01:49 | 36.05711 | -114.85672 | 4782 ft | 200 kts | 319° |
| 2026-05-07 01:49 | 36.06483 | -114.87071 | 4776 ft | 198 kts | 290° |
| 2026-05-07 01:50 | 36.06708 | -114.88746 | 4772 ft | 198 kts | 276° |
| 2026-05-07 01:50 | 36.06864 | -114.90439 | 4771 ft | 198 kts | 277° |
| 2026-05-07 01:50 | 36.07033 | -114.92125 | 4766 ft | 198 kts | 278° |
| 2026-05-07 01:50 | 36.07248 | -114.93801 | 4765 ft | 198 kts | 278° |
| 2026-05-07 01:51 | 36.07363 | -114.95507 | 4724 ft | 198 kts | 272° |
| 2026-05-07 01:51 | 36.07376 | -114.97208 | 4482 ft | 198 kts | 270° |
| 2026-05-07 01:51 | 36.07375 | -114.98907 | 4221 ft | 197 kts | 270° |
| 2026-05-07 01:51 | 36.07373 | -115.00587 | 3968 ft | 196 kts | 270° |
| 2026-05-07 01:52 | 36.07373 | -115.02271 | 3720 ft | 196 kts | 270° |
| 2026-05-07 01:52 | 36.07371 | -115.03894 | 3472 ft | 181 kts | 270° |
| 2026-05-07 01:52 | 36.07370 | -115.05377 | 3258 ft | 165 kts | 269° |
| 2026-05-07 01:52 | 36.07370 | -115.06738 | 3054 ft | 153 kts | 269° |
| 2026-05-07 01:53 | 36.07368 | -115.08027 | 2857 ft | 151 kts | 269° |
| 2026-05-07 01:53 | 36.07364 | -115.09328 | 2623 ft | 152 kts | 269° |
| 2026-05-07 01:53 | 36.07359 | -115.10623 | 2420 ft | 149 kts | 270° |
| 2026-05-07 01:53 | 36.07369 | -115.11901 | 2301 ft | 149 kts | 270° |
| 2026-05-07 01:54 | 36.07367 | -115.13182 | 2206 ft | 149 kts | 269° |
| 2026-05-07 01:54 | 36.07365 | -115.14330 | 2191 ft | 106 kts | 270° |
| 2026-05-07 01:54 | 36.07360 | -115.14996 | 2188 ft | 49 kts | 270° |
| 2026-05-07 01:54 | 36.07366 | -115.15210 | 2186 ft | 15 kts | 276° |
| 2026-05-07 01:55 | 36.07398 | -115.15359 | 2190 ft | 21 kts | 294° |
| 2026-05-07 01:55 | 36.07474 | -115.15521 | 2190 ft | 21 kts | 283° |
| 2026-05-07 01:55 | 36.07566 | -115.15666 | 2189 ft | 23 kts | 315° |
| 2026-05-07 01:55 | 36.07688 | -115.15808 | 2189 ft | 26 kts | 322° |
| 2026-05-07 01:56 | 36.07791 | -115.15792 | 2190 ft | 14 kts | 50° |
| 2026-05-07 01:56 | 36.07803 | -115.15768 | 2190 ft | 0 kts | 67° |
| 2026-05-07 01:56 | 36.07807 | -115.15728 | 2188 ft | 15 kts | 88° |
| 2026-05-07 01:56 | 36.07803 | -115.15565 | 2188 ft | 21 kts | 92° |
| 2026-05-07 01:57 | 36.07799 | -115.15372 | 2189 ft | 24 kts | 86° |
| 2026-05-07 01:57 | 36.07809 | -115.15157 | 2189 ft | 26 kts | 87° |
| 2026-05-07 01:57 | 36.07795 | -115.14930 | 2188 ft | 28 kts | 96° |
| 2026-05-07 01:57 | 36.07775 | -115.14686 | 2187 ft | 29 kts | 96° |
| 2026-05-07 01:58 | 36.07766 | -115.14564 | 2189 ft | 0 kts | 95° |
| 2026-05-07 01:58 | 36.07765 | -115.14530 | 2187 ft | 11 kts | 95° |
| 2026-05-07 01:58 | 36.07758 | -115.14404 | 2191 ft | 17 kts | 93° |
| 2026-05-07 01:58 | 36.07750 | -115.14241 | 2187 ft | 21 kts | 93° |
| 2026-05-07 01:59 | 36.07756 | -115.14155 | 2187 ft | 0 kts | 47° |
| 2026-05-07 01:59 | 36.07771 | -115.14153 | 2191 ft | 4 kts | 352° |
| 2026-05-07 01:59 | 36.07831 | -115.14160 | 2188 ft | 13 kts | 358° |
| 2026-05-07 01:59 | 36.07946 | -115.14161 | 2190 ft | 19 kts | 0° |
| 2026-05-07 02:00 | 36.08088 | -115.14158 | 2190 ft | 22 kts | 1° |
| 2026-05-07 02:00 | 36.08211 | -115.14159 | 2189 ft | 0 kts | 358° |
| 2026-05-07 02:00 | 36.08240 | -115.14160 | 2189 ft | 11 kts | 358° |
| 2026-05-07 02:01 | 36.08324 | -115.14117 | 2189 ft | 15 kts | 47° |
| 2026-05-07 02:01 | 36.08385 | -115.14040 | 2193 ft | 12 kts | 45° |
| 2026-05-07 02:01 | 36.08413 | -115.13946 | 2190 ft | 12 kts | 101° |
| 2026-05-07 02:01 | 36.08413 | -115.13922 | 2189 ft | 1 kts | 86° |
| 2026-05-07 02:02 | 36.08414 | -115.13899 | 2190 ft | 5 kts | 86° |
| 2026-05-07 02:02 | 36.08417 | -115.13843 | 2187 ft | 8 kts | 89° |
| 2026-05-07 02:02 | 36.08408 | -115.13761 | 2189 ft | 11 kts | 111° |
| 2026-05-07 02:02 | 36.08379 | -115.13711 | 2188 ft | 4 kts | 136° |
| 2026-05-07 02:03 | 36.08357 | -115.13691 | 2188 ft | 4 kts | 143° |
| 2026-05-07 02:03 | 36.08348 | -115.13682 | 2188 ft | 0 kts | 138° |
| 2026-05-07 02:03 | 36.08346 | -115.13679 | 2192 ft | 2 kts | 139° |
| 2026-05-07 02:03 | 36.08332 | -115.13665 | 2188 ft | 2 kts | 140° |
| 2026-05-07 02:04 | 36.08326 | -115.13659 | 2188 ft | 0 kts | 139° |
| 2026-05-07 02:04 | 36.08317 | -115.13649 | 2191 ft | 2 kts | 139° |
| 2026-05-07 02:04 | 36.08315 | -115.13647 | 2191 ft | 0 kts | 139° |